Weather observations for the past three days for
Stampede Pass
| Date | Time (pdt) | Wind (mph) | Vis. (mi.) | Weather | Sky Cond. | Temperature (ºF) | Relative Humidity | Wind Chill (°F) | Heat Index (°F) | Pressure | Precipitation (in) | ||||||
|---|---|---|---|---|---|---|---|---|---|---|---|---|---|---|---|---|---|
| Air | Dwpt | 6 hour | altimeter (in) | sea level (mb) | 1 hr | 3 hr | 6 hr | ||||||||||
| Max. | Min. | ||||||||||||||||
| 03 | 14:56 | Vrbl 3 | 10.00 | A Few Clouds | FEW085 | 72 | 34 | 25% | 29.99 | 979.8 | |||||||
| 03 | 13:56 | Vrbl 3 | 10.00 | Fair | CLR | 70 | 32 | 25% | 30 | 980.1 | |||||||
| 03 | 12:56 | Calm | 10.00 | Fair | CLR | 72 | 36 | 27% | 30.02 | 980.7 | |||||||
| 03 | 11:56 | Calm | 10.00 | Fair | CLR | 66.9 | 33.1 | 29% | 30.04 | 981.3 | |||||||
| 03 | 10:56 | Calm | 10.00 | Fair | CLR | 68 | 39 | 68 | 55 | 35% | 30.05 | 981.6 | |||||
| 03 | 09:56 | Calm | 10.00 | Fair | CLR | 64 | 39 | 40% | 30.05 | 981.6 | |||||||
| 03 | 08:56 | Calm | 10.00 | Fair | CLR | 61 | 37.9 | 43% | 30.06 | 981.7 | |||||||
| 03 | 07:56 | Calm | 10.00 | Fair | CLR | 57 | 42.1 | 58% | 30.05 | 981.6 | |||||||
| 03 | 06:56 | Calm | 10.00 | Fair | CLR | 55.9 | 39.9 | 55% | 30.05 | 981.5 | |||||||
| 03 | 05:56 | Calm | 10.00 | Fair | CLR | 55.9 | 36 | 47% | 30.05 | 981.5 | |||||||
| 03 | 04:56 | Calm | 10.00 | Fair | CLR | 55.9 | 36 | 60.1 | 55.9 | 47% | 30.06 | 981.7 | |||||
| 03 | 03:56 | Calm | 10.00 | Fair | CLR | 57 | 36 | 45% | 30.06 | 981.9 | |||||||
| 03 | 02:56 | Calm | 10.00 | Fair | CLR | 55.9 | 37 | 49% | 30.06 | 982.0 | |||||||
| 03 | 01:56 | Calm | 10.00 | Fair | CLR | 57.9 | 36 | 44% | 30.07 | 982.2 | |||||||
| 03 | 00:56 | Calm | 10.00 | Fair | CLR | 59 | 37.9 | 46% | 30.07 | 982.2 | |||||||
| 02 | 23:56 | Calm | 10.00 | Fair | CLR | 59 | 39 | 48% | 30.07 | 982.2 | |||||||
| 02 | 22:56 | Calm | 10.00 | Fair | CLR | 60.1 | 39 | 69.1 | 59 | 46% | 30.07 | 982.2 | |||||
| 02 | 21:56 | Calm | 10.00 | Fair | CLR | 60.1 | 37.9 | 44% | 30.07 | 982.0 | |||||||
| 02 | 20:56 | Calm | 10.00 | Fair | CLR | 60.1 | 37 | 42% | 30.05 | 981.6 | |||||||
| 02 | 19:56 | Calm | 10.00 | Partly Cloudy | SCT080 | 62.1 | 36 | 38% | 30.03 | 981.0 | |||||||
| 02 | 18:56 | Calm | 10.00 | Fair | CLR | 63 | 37 | 38% | 30.03 | 980.9 | |||||||
| 02 | 17:56 | Calm | 10.00 | Partly Cloudy | SCT110 | 64.9 | 37 | 36% | 30.02 | 980.8 | |||||||
| 02 | 16:56 | Calm | 10.00 | Fair | CLR | 68 | 36 | 70 | 55.9 | 31% | 30.03 | 980.9 | |||||
| 02 | 15:56 | Calm | 10.00 | Fair | CLR | 70 | 36 | 29% | 30.04 | 981.3 | |||||||
| 02 | 14:56 | Vrbl 3 | 10.00 | Fair | CLR | 69.1 | 37 | 31% | 30.05 | 981.6 | |||||||
| 02 | 13:56 | Calm | 10.00 | Fair | CLR | 66.9 | 39 | 36% | 30.06 | 981.9 | |||||||
| 02 | 12:56 | Calm | 10.00 | Fair | CLR | 64.9 | 41 | 42% | 30.07 | 982.2 | |||||||
| 02 | 11:56 | Calm | 10.00 | Overcast | OVC100 | 63 | 42.1 | 47% | 30.08 | 982.4 | |||||||
| 02 | 10:56 | Calm | 10.00 | Overcast | OVC095 | 55 | 39.9 | 59 | 48 | 57% | 30.07 | 982.3 | |||||
| 02 | 09:56 | Calm | 10.00 | Overcast | OVC090 | 57.9 | 37.9 | 48% | 30.08 | 982.5 | |||||||
| 02 | 08:56 | Calm | 10.00 | Mostly Cloudy | SCT090 BKN110 | 55 | 37.9 | 53% | 30.08 | 982.4 | |||||||
| 02 | 07:56 | Calm | 10.00 | Mostly Cloudy | BKN100 | 54 | 37.9 | 55% | 30.06 | 981.9 | |||||||
| 02 | 06:56 | Calm | 10.00 | Mostly Cloudy | BKN110 | 48.9 | 41 | 74% | 30.05 | 981.6 | |||||||
| 02 | 05:56 | Calm | 10.00 | A Few Clouds | FEW110 | 51.1 | 37.9 | 61% | 30.05 | 981.5 | |||||||
| 02 | 04:56 | SW 3 | 10.00 | Overcast | OVC110 | 48 | 43 | 53.1 | 46.9 | 83% | 30.06 | 981.7 | |||||
| 02 | 03:56 | Calm | 10.00 | Mostly Cloudy | BKN100 | 51.1 | 39 | 64% | 30.04 | 981.3 | |||||||
| 02 | 02:56 | Calm | 10.00 | Fair | CLR | 48.9 | 42.1 | 77% | 30.04 | 981.3 | |||||||
| 02 | 01:56 | Calm | 10.00 | Partly Cloudy | SCT090 | 48.9 | 43 | 80% | 30.06 | 981.7 | |||||||
| 02 | 00:56 | Calm | 10.00 | Mostly Cloudy | BKN100 BKN110 | 50 | 42.1 | 74% | 30.06 | 981.9 | |||||||
| 01 | 23:56 | SW 6 | 10.00 | Overcast | FEW075 OVC100 | 48 | 43 | 83% | 46 | 30.07 | 982.2 | ||||||
| 01 | 22:56 | SW 3 | 10.00 | Fair | CLR | 50 | 42.1 | 64 | 48.9 | 74% | 30.06 | 981.9 | |||||
| 01 | 21:56 | SW 3 | 10.00 | Partly Cloudy | FEW080 SCT110 | 50 | 43 | 77% | 30.06 | 981.8 | |||||||
| 01 | 20:56 | Calm | 10.00 | A Few Clouds | FEW110 | 52 | 43 | 72% | 30.04 | 981.4 | |||||||
| 01 | 19:56 | SW 3 | 10.00 | A Few Clouds | FEW120 | 54 | 44.1 | 69% | 30.03 | 981.0 | |||||||
| 01 | 17:56 | Calm | 10.00 | Fair | CLR | 63 | 39 | 41% | 30.03 | 981.0 | |||||||
| 01 | 16:56 | Calm | 10.00 | A Few Clouds | FEW075 | 64 | 37.9 | 64 | 57.9 | 38% | 30.04 | 981.1 | |||||
| 01 | 15:56 | Calm | 10.00 | Partly Cloudy | SCT080 | 62.1 | 37.9 | 41% | 30.05 | 981.6 | |||||||
| 01 | 14:56 | Calm | 10.00 | A Few Clouds | FEW085 | 63 | 35.1 | 35% | 30.06 | 981.9 | |||||||
| 01 | 13:56 | Calm | 10.00 | Fair | CLR | 60.1 | 36 | 41% | 30.07 | 982.1 | |||||||
| 01 | 12:56 | Calm | 10.00 | Fair | CLR | 60.1 | 36 | 41% | 30.07 | 982.2 | |||||||
| 01 | 11:56 | Calm | 10.00 | Fair | CLR | 61 | 35.1 | 38% | 30.08 | 982.6 | |||||||
| 01 | 10:56 | Calm | 10.00 | A Few Clouds | FEW080 | 57.9 | 37 | 57.9 | 43 | 46% | 30.09 | 982.8 | |||||
| 01 | 09:56 | Calm | 10.00 | Fair | CLR | 55.9 | 36 | 47% | 30.1 | 983.1 | |||||||
| 01 | 08:56 | Calm | 10.00 | Fair | CLR | 53.1 | 37 | 55% | 30.1 | 983.1 | |||||||
| 01 | 07:56 | N 3 | 10.00 | Fair | CLR | 48.9 | 36 | 61% | 30.1 | 983.0 | |||||||
| 01 | 06:56 | Calm | 10.00 | Fair | CLR | 45 | 34 | 66% | 30.09 | 982.7 | |||||||
| 01 | 05:56 | Calm | 10.00 | Fair | CLR | 44.1 | 33.1 | 65% | 30.08 | 982.4 | |||||||
| 01 | 04:56 | Calm | 10.00 | Fair | CLR | 44.1 | 33.1 | 48.9 | 43 | 65% | 30.08 | 982.6 | |||||
| 01 | 03:56 | Calm | 10.00 | Fair | CLR | 45 | 32 | 61% | 30.08 | 982.5 | |||||||
| 01 | 02:56 | Calm | 10.00 | Fair | CLR | 44.1 | 33.1 | 65% | 30.09 | 982.7 | |||||||
| 01 | 01:56 | Calm | 10.00 | Fair | CLR | 46.9 | 32 | 56% | 30.1 | 983.1 | |||||||
| 01 | 00:56 | Calm | 10.00 | Fair | CLR | 46 | 33.1 | 61% | 30.11 | 983.4 | |||||||
| 30 | 23:56 | Calm | 10.00 | Fair | CLR | 48.9 | 32 | 52% | 30.11 | 983.5 | |||||||
| 30 | 22:56 | Calm | 10.00 | Fair | CLR | 48.9 | 33.1 | 61 | 48 | 55% | 30.11 | 983.5 | |||||
| 30 | 21:56 | Calm | 10.00 | Fair | CLR | 50 | 33.1 | 52% | 30.12 | 983.6 | |||||||
| 30 | 20:56 | Calm | 10.00 | Fair | CLR | 51.1 | 33.1 | 50% | 30.1 | 983.2 | |||||||
| 30 | 19:56 | Calm | 10.00 | Fair | CLR | 54 | 33.1 | 45% | 30.1 | 983.1 | |||||||
| 30 | 18:56 | Calm | 10.00 | Fair | CLR | 55 | 33.1 | 44% | 30.1 | 983.2 | |||||||
| 30 | 17:56 | Calm | 10.00 | Fair | CLR | 57.9 | 35.1 | 42% | 30.11 | 983.3 | |||||||
| 30 | 15:56 | Calm | 10.00 | Mostly Cloudy | BKN070 | 59 | 33.1 | 38% | 30.14 | 984.4 | |||||||
| Date | Time (pdt) | Wind (mph) | Vis. (mi.) | Weather | Sky Cond. | Air | Dwpt | Max. | Min. | Relative Humidity | Wind Chill (°F) | Heat Index (°F) | altimeter (in) | sea level (mb) | 1 hr | 3 hr | 6 hr |
| 6 hour | |||||||||||||||||
| Temperature (ºF) | Pressure | Precipitation (in) | |||||||||||||||